Airfield :
LOGIN :

Register | Disclaimer

   EN    FR    IT 

 










Legend :    VFR   Marginal VFR   IFR   Intensive IFR   Very Intensive IFR
Visi :
Ceiling :
>= 8 km
>= 3000ft
5 to 8 km
1000 to 3000 ft
1500m to 5 km
500 to 1000 ft
800 to 1500m
200 to 500 ft
< 800m
< 200 ft
Symbols :   Thunderstorms  Fog  Heavy snow  Heavy precipitations  Wind > 20 kt
SIGMETs :     Misc.  Thunderstorms  Icing  Turbulence  Mountain Waves  Volcanic Ashes






- Airport Elevation : 120 ft
- IATA code : MME


EGNV - Durham Tees valley

CURRENT METAR :
  • 211720Z 01005KT 330V060 9999 BKN010 14/11 Q1011

EXPIRED METARs :
  • 211650Z 03006KT 350V050 9999 BKN009 14/11 Q1011
  • 211620Z 03006KT 350V080 9999 BKN010 14/11 Q1011
  • 211550Z 05006KT 340V100 9999 BKN013 15/11 Q1011
  • 211520Z 03006KT 360V080 9999 BKN013 15/11 Q1011
  • 211450Z 03007KT 360V070 9999 BKN014 15/12 Q1011
  • 211420Z 05010KT 020V080 9999 BKN013 15/11 Q1011
  • 211350Z 05010KT 020V090 9999 BKN013 15/11 Q1011
  • 211320Z 06012KT 9999 BKN013 15/11 Q1011
  • 211250Z 06011KT 9999 BKN013 15/12 Q1012
  • 211220Z 06009KT 9999 BKN013 15/12 Q1012

TAF TAF EGNV
Valid from the 21 at 18:00 until the 21 at 21:00 UTC


211706Z 2118/2121 03006KT 9999 SCT006 BKN010
PROB30
TEMPO 2118/2121 4000 BR BKN006
ATIS : +44 9012 018 111



MET'MAP, your aeronautical weather chart ! - Copyright ORBIFLY December 2007 - Disclaimer

ORBIFLY MET'MAP TEAM :

Programming & Development : Alexandra Zaïnal
Original concept : Baudouin d'Aumeries
Technical & hardware support : Manuel Goepfert
Assistance : Marc-Olivier Méhu




SOURCES & CREDITS :

   NOAA